Airfield :
LOGIN :

Register | Disclaimer

   EN    FR    IT 

 










Legend :    VFR   Marginal VFR   IFR   Intensive IFR   Very Intensive IFR
Visi :
Ceiling :
>= 8 km
>= 3000ft
5 to 8 km
1000 to 3000 ft
1500m to 5 km
500 to 1000 ft
800 to 1500m
200 to 500 ft
< 800m
< 200 ft
Symbols :   Thunderstorms  Fog  Heavy snow  Heavy precipitations  Wind > 20 kt
SIGMETs :     Misc.  Thunderstorms  Icing  Turbulence  Mountain Waves  Volcanic Ashes






- Airport Elevation : 1455 ft


ETIH - Hohenfels Army Air Field

CURRENT METAR :
  • 271455Z AUTO 00000KT 9999 FEW041 22/12 A3002 RMK AO2 SLP163 60000 T02160116 57020

EXPIRED METARs :
  • 271355Z AUTO 19003KT 9999 SCT038 SCT130 22/11 A3003 RMK AO2 SLP168 T02150112 $
  • 271255Z AUTO 00000KT 9999 FEW120 SCT170 SCT190 20/10 A3005 RMK AO2 DZB1158E12 SLP176 P0000 T01990103
  • 271212Z AUTO 25006KT 9999 FEW037 FEW200 20/12 A3007 RMK AO2 DZB1158E12 SLP182 $
  • 271158Z AUTO 23004KT 9999 -DZ FEW039 FEW110 20/12 A3008 RMK AO2 DZB58 SLP185 $
  • 271155Z AUTO 30003KT 9999 FEW034 FEW100 20/11 A3008 RMK AO2 DZE03 SLP185 P0000 60000 T01990114 10203 20141 58011 $
  • 271103Z AUTO 19003KT 9999 FEW033 FEW055 SCT080 19/12 A3010 RMK AO2 DZE03 SLP193 $
  • 271038Z AUTO 21004KT 9999 -DZ SCT029 BKN100 19/12 A3010 RMK AO2 DZB21E33DZB38 SLP193 $
  • 271033Z AUTO 19004KT 9999 SCT029 BKN100 19/12 A3011 RMK AO2 DZB21E33 SLP196 $
  • 271021Z AUTO 11004KT 9999 -DZ SCT110 SCT170 20/12 A3011 RMK AO2 DZB21 SLP195 $

Expired Forecast.



MET'MAP, your aeronautical weather chart ! - Copyright ORBIFLY December 2007 - Disclaimer

ORBIFLY MET'MAP TEAM :

Programming & Development : Alexandra Zaïnal
Original concept : Baudouin d'Aumeries
Technical & hardware support : Manuel Goepfert
Assistance : Marc-Olivier Méhu




SOURCES & CREDITS :

   NOAA